Time;durP1;ratioP1;P1;durP2;ratioP2;P2;SDS_P1;SDS_P2;PMS_P1;PMS_P2;Temp;Humidity;BMP_temperature;BMP_pressure;BME280_temperature;BME280_humidity;BME280_pressure;Samples;Min_cycle;Max_cycle;Signal;HPM_P1;HPM_P2
2021/08/21 00:01:09;;;;;;;9.03;7.00;;;;;;;;;;5032289;28;20987;-75
2021/08/21 00:03:35;;;;;;;8.23;6.83;;;;;;;;;;5029427;28;20463;-74
2021/08/21 00:06:01;;;;;;;9.30;6.50;;;;;;;;;;5029034;28;20460;-74
2021/08/21 00:08:28;;;;;;;8.53;7.03;;;;;;;;;;5029195;28;20412;-74
2021/08/21 00:10:54;;;;;;;9.27;7.10;;;;;;;;;;5028736;28;20432;-73
2021/08/21 00:13:20;;;;;;;11.67;8.33;;;;;;;;;;5027705;28;20424;-73
2021/08/21 00:15:46;;;;;;;10.37;7.17;;;;;;;;;;5029117;28;20878;-74
2021/08/21 00:18:12;;;;;;;10.60;8.02;;;;;;;;;;5028887;28;20420;-76
2021/08/21 00:20:38;;;;;;;10.35;6.57;;;;;;;;;;5029181;28;20224;-74
2021/08/21 00:23:05;;;;;;;9.33;6.67;;;;;;;;;;5029141;28;20181;-74
2021/08/21 00:25:31;;;;;;;9.30;7.30;;;;;;;;;;5028991;28;20495;-74
2021/08/21 00:27:57;;;;;;;7.97;6.77;;;;;;;;;;5028805;28;20838;-75
2021/08/21 00:30:23;;;;;;;9.13;7.55;;;;;;;;;;5024288;28;20475;-73
2021/08/21 00:32:51;;;;;;;11.68;7.65;;;;;;;;;;5028717;28;20185;-75
2021/08/21 00:35:17;;;;;;;10.50;7.37;;;;;;;;;;5029434;28;20263;-74
2021/08/21 00:37:43;;;;;;;8.90;7.10;;;;;;;;;;5028895;28;20419;-75
2021/08/21 00:40:10;;;;;;;12.30;7.28;;;;;;;;;;5029160;28;20613;-73
2021/08/21 00:42:36;;;;;;;9.70;7.65;;;;;;;;;;5029020;28;20186;-74
2021/08/21 00:45:03;;;;;;;8.85;7.45;;;;;;;;;;5028771;28;20257;-74
2021/08/21 00:47:29;;;;;;;10.95;7.43;;;;;;;;;;5028762;28;20547;-73
2021/08/21 00:49:55;;;;;;;10.88;7.20;;;;;;;;;;5032857;28;20538;-74
2021/08/21 00:52:24;;;;;;;11.38;8.23;;;;;;;;;;5048878;28;20188;-74
2021/08/21 00:54:51;;;;;;;9.38;8.38;;;;;;;;;;5036055;28;20192;-74
2021/08/21 00:57:17;;;;;;;10.15;7.25;;;;;;;;;;5032723;28;20193;-75
2021/08/21 00:59:44;;;;;;;9.77;7.57;;;;;;;;;;5029168;28;20182;-75
2021/08/21 01:02:11;;;;;;;8.80;6.77;;;;;;;;;;5028796;28;20201;-73
2021/08/21 01:04:38;;;;;;;10.73;7.90;;;;;;;;;;5038793;28;20972;-75
2021/08/21 01:07:04;;;;;;;10.45;8.32;;;;;;;;;;5035356;28;20469;-75
2021/08/21 01:09:30;;;;;;;8.30;6.82;;;;;;;;;;5048836;28;20196;-74
2021/08/21 01:11:56;;;;;;;13.77;7.82;;;;;;;;;;5039065;28;20184;-74
2021/08/21 01:14:26;;;;;;;11.40;8.67;;;;;;;;;;5048740;28;20181;-74
2021/08/21 01:16:52;;;;;;;13.65;8.45;;;;;;;;;;5037601;28;21320;-75
2021/08/21 01:19:18;;;;;;;11.57;8.30;;;;;;;;;;5028671;28;20260;-74
2021/08/21 01:21:45;;;;;;;14.13;8.10;;;;;;;;;;5028538;28;20562;-76
2021/08/21 01:24:11;;;;;;;11.50;8.02;;;;;;;;;;5028706;28;20169;-75
2021/08/21 01:26:47;;;;;;;12.35;8.35;;;;;;;;;;5028195;28;20201;-74
2021/08/21 01:29:13;;;;;;;9.00;7.28;;;;;;;;;;5028276;28;20236;-75
2021/08/21 01:31:39;;;;;;;10.53;7.50;;;;;;;;;;5028571;28;20729;-74
2021/08/21 01:34:05;;;;;;;10.02;8.15;;;;;;;;;;5028636;28;20421;-75
2021/08/21 01:36:47;;;;;;;8.87;7.97;;;;;;;;;;5028121;28;20208;-75
2021/08/21 01:39:13;;;;;;;11.30;8.32;;;;;;;;;;5024578;28;20424;-76
2021/08/21 01:41:41;;;;;;;11.13;8.10;;;;;;;;;;5030271;28;20202;-73
2021/08/21 01:44:10;;;;;;;12.13;8.30;;;;;;;;;;5035233;28;20239;-73
2021/08/21 01:46:37;;;;;;;11.38;8.75;;;;;;;;;;5025782;28;20550;-73
2021/08/21 01:49:07;;;;;;;10.10;7.35;;;;;;;;;;5035648;28;20186;-74
2021/08/21 01:51:33;;;;;;;10.23;8.50;;;;;;;;;;5035776;28;20231;-73
2021/08/21 01:53:59;;;;;;;11.30;8.75;;;;;;;;;;5035528;28;20185;-74
2021/08/21 01:56:25;;;;;;;10.40;7.90;;;;;;;;;;5035440;28;20277;-74
2021/08/21 01:58:52;;;;;;;13.50;8.10;;;;;;;;;;5035253;28;20423;-73
2021/08/21 02:01:18;;;;;;;11.82;8.45;;;;;;;;;;5035314;28;20229;-74
2021/08/21 02:03:46;;;;;;;15.93;8.07;;;;;;;;;;5035429;28;20185;-74
2021/08/21 02:06:13;;;;;;;11.27;8.38;;;;;;;;;;5046327;28;20209;-74
2021/08/21 02:08:39;;;;;;;10.48;8.57;;;;;;;;;;5054731;28;20534;-73
2021/08/21 02:11:05;;;;;;;10.80;8.32;;;;;;;;;;5055442;28;20510;-73
2021/08/21 02:13:31;;;;;;;12.20;8.47;;;;;;;;;;5054910;28;20177;-74
2021/08/21 02:15:57;;;;;;;12.07;8.37;;;;;;;;;;5055367;28;20435;-74
2021/08/21 02:18:23;;;;;;;10.77;8.20;;;;;;;;;;5054916;28;20912;-74
2021/08/21 02:20:49;;;;;;;11.13;7.80;;;;;;;;;;5055216;28;20461;-74
2021/08/21 02:23:15;;;;;;;11.90;8.80;;;;;;;;;;5054871;28;20824;-74
2021/08/21 02:25:41;;;;;;;12.68;9.35;;;;;;;;;;5054851;28;20423;-74
2021/08/21 02:28:09;;;;;;;13.77;8.53;;;;;;;;;;5054576;28;20250;-74
2021/08/21 02:30:36;;;;;;;10.95;8.50;;;;;;;;;;5035568;28;20417;-74
2021/08/21 02:33:02;;;;;;;11.35;8.18;;;;;;;;;;5034913;28;20174;-74
2021/08/21 02:35:28;;;;;;;12.48;9.27;;;;;;;;;;5034860;28;20659;-74
2021/08/21 02:37:55;;;;;;;9.65;8.25;;;;;;;;;;5034615;28;20188;-73
2021/08/21 02:40:21;;;;;;;10.68;8.07;;;;;;;;;;5034908;28;20524;-73
2021/08/21 02:42:49;;;;;;;12.20;8.60;;;;;;;;;;5034917;28;20181;-74
2021/08/21 02:45:15;;;;;;;11.13;8.10;;;;;;;;;;5034681;28;20435;-74
2021/08/21 02:47:41;;;;;;;13.60;9.07;;;;;;;;;;5034197;28;20519;-73
2021/08/21 02:50:08;;;;;;;12.75;9.70;;;;;;;;;;5034549;28;20405;-73
2021/08/21 02:52:34;;;;;;;12.95;9.57;;;;;;;;;;5033809;28;20186;-74
2021/08/21 02:55:00;;;;;;;11.75;8.95;;;;;;;;;;5034503;28;20189;-75
2021/08/21 02:57:26;;;;;;;12.02;9.98;;;;;;;;;;5036695;28;20181;-74
2021/08/21 02:59:52;;;;;;;13.82;9.25;;;;;;;;;;5034607;28;20176;-74
2021/08/21 03:02:18;;;;;;;14.60;8.50;;;;;;;;;;5034271;28;20544;-74
2021/08/21 03:04:44;;;;;;;11.33;8.40;;;;;;;;;;5034389;28;20441;-73
2021/08/21 03:07:10;;;;;;;13.17;9.00;;;;;;;;;;5033843;28;20885;-74
2021/08/21 03:09:36;;;;;;;12.40;9.00;;;;;;;;;;5034270;28;20409;-74
2021/08/21 03:12:02;;;;;;;13.53;9.43;;;;;;;;;;5032803;28;20774;-74
2021/08/21 03:14:28;;;;;;;14.52;9.88;;;;;;;;;;5034208;28;20969;-74
2021/08/21 03:16:54;;;;;;;13.55;9.70;;;;;;;;;;5033882;28;20667;-74
2021/08/21 03:19:20;;;;;;;14.47;10.67;;;;;;;;;;5034098;28;20186;-73
2021/08/21 03:21:46;;;;;;;11.25;8.35;;;;;;;;;;5033908;28;20483;-74
2021/08/21 03:24:12;;;;;;;13.98;9.27;;;;;;;;;;5033997;28;20563;-72
2021/08/21 03:26:38;;;;;;;13.60;9.25;;;;;;;;;;5033421;28;20202;-73
2021/08/21 03:29:04;;;;;;;14.77;9.63;;;;;;;;;;5033825;28;20189;-73
2021/08/21 03:31:30;;;;;;;11.75;8.85;;;;;;;;;;5033715;28;20912;-72
2021/08/21 03:33:56;;;;;;;14.38;10.02;;;;;;;;;;5033669;28;20603;-73
2021/08/21 03:36:22;;;;;;;12.73;8.70;;;;;;;;;;5033743;28;20213;-73
2021/08/21 03:38:48;;;;;;;14.10;9.45;;;;;;;;;;5034670;28;20174;-74
2021/08/21 03:41:14;;;;;;;12.38;9.40;;;;;;;;;;5034411;28;20201;-74
2021/08/21 03:43:40;;;;;;;13.13;8.95;;;;;;;;;;5034183;28;20170;-73
2021/08/21 03:46:07;;;;;;;12.90;10.27;;;;;;;;;;5033404;28;20200;-74
2021/08/21 03:48:33;;;;;;;12.13;9.35;;;;;;;;;;5032881;28;20427;-73
2021/08/21 03:50:59;;;;;;;14.13;9.50;;;;;;;;;;5033649;28;20185;-73
2021/08/21 03:53:25;;;;;;;13.37;9.40;;;;;;;;;;5033428;28;20200;-72
2021/08/21 03:55:51;;;;;;;13.45;9.50;;;;;;;;;;5033271;28;20523;-72
2021/08/21 03:58:17;;;;;;;13.77;9.98;;;;;;;;;;5049941;28;20591;-74
2021/08/21 04:00:44;;;;;;;10.30;7.40;;;;;;;;;;5053252;28;20201;-72
2021/08/21 04:03:10;;;;;;;12.80;8.70;;;;;;;;;;5053259;28;20414;-73
2021/08/21 04:05:36;;;;;;;10.70;9.00;;;;;;;;;;5052061;28;20542;-73
2021/08/21 04:08:03;;;;;;;11.80;9.40;;;;;;;;;;5052812;28;20966;-73
2021/08/21 04:10:29;;;;;;;10.43;8.43;;;;;;;;;;5053078;28;20896;-73
2021/08/21 04:12:55;;;;;;;10.60;8.40;;;;;;;;;;5053194;28;20691;-73
2021/08/21 04:15:21;;;;;;;10.10;8.80;;;;;;;;;;5052873;28;20466;-73
2021/08/21 04:17:47;;;;;;;9.40;8.27;;;;;;;;;;5052702;28;20412;-72
2021/08/21 04:20:13;;;;;;;11.03;8.97;;;;;;;;;;5052771;28;20420;-73
2021/08/21 04:22:39;;;;;;;9.17;7.87;;;;;;;;;;5052735;28;20804;-73
2021/08/21 04:25:07;;;;;;;8.30;7.50;;;;;;;;;;5042217;28;20516;-73
2021/08/21 04:27:33;;;;;;;10.10;7.73;;;;;;;;;;5032628;28;20405;-73
2021/08/21 04:29:59;;;;;;;9.63;7.57;;;;;;;;;;5032723;28;20905;-73
2021/08/21 04:32:25;;;;;;;9.60;7.60;;;;;;;;;;5032824;28;20408;-73
2021/08/21 04:34:52;;;;;;;7.97;7.00;;;;;;;;;;5031233;28;20416;-73
2021/08/21 04:37:18;;;;;;;9.30;7.93;;;;;;;;;;5045761;28;20772;-73
2021/08/21 04:39:44;;;;;;;8.93;6.93;;;;;;;;;;5052457;28;20417;-73
2021/08/21 04:42:10;;;;;;;7.80;6.63;;;;;;;;;;5052854;28;20848;-73
2021/08/21 04:44:36;;;;;;;9.03;7.50;;;;;;;;;;5052494;28;20487;-73
2021/08/21 04:47:02;;;;;;;9.93;7.50;;;;;;;;;;5051977;28;20439;-72
2021/08/21 04:49:28;;;;;;;10.63;8.70;;;;;;;;;;5052554;28;20815;-74
2021/08/21 04:51:56;;;;;;;10.37;7.30;;;;;;;;;;5052439;28;20419;-73
2021/08/21 04:54:22;;;;;;;9.60;7.70;;;;;;;;;;5052565;28;20424;-73
2021/08/21 04:56:48;;;;;;;10.83;8.13;;;;;;;;;;5040373;28;20429;-73
2021/08/21 04:59:15;;;;;;;9.50;8.27;;;;;;;;;;5032672;28;20785;-73
2021/08/21 05:01:41;;;;;;;9.63;8.03;;;;;;;;;;5032444;28;20649;-73
2021/08/21 05:04:07;;;;;;;11.63;8.00;;;;;;;;;;5032857;28;20417;-73
2021/08/21 05:06:33;;;;;;;10.13;7.80;;;;;;;;;;5032440;28;20522;-73
2021/08/21 05:08:59;;;;;;;8.77;7.87;;;;;;;;;;5032472;28;20457;-73
2021/08/21 05:11:25;;;;;;;8.70;7.80;;;;;;;;;;5032571;28;20417;-73
2021/08/21 05:13:51;;;;;;;10.30;7.90;;;;;;;;;;5032468;28;20482;-73
2021/08/21 05:16:18;;;;;;;10.80;8.23;;;;;;;;;;5033937;28;20440;-73
2021/08/21 05:18:51;;;;;;;9.37;7.97;;;;;;;;;;5036345;28;20428;-73
2021/08/21 05:21:35;;;;;;;9.50;8.50;;;;;;;;;;5036022;28;20548;-74
2021/08/21 05:24:01;;;;;;;9.13;8.23;;;;;;;;;;5036218;28;20409;-73
2021/08/21 05:26:28;;;;;;;11.23;8.93;;;;;;;;;;5035986;28;20801;-73
2021/08/21 05:28:54;;;;;;;10.00;8.27;;;;;;;;;;5035643;28;20405;-74
2021/08/21 05:31:20;;;;;;;9.70;8.77;;;;;;;;;;5035871;28;20428;-74
2021/08/21 05:33:46;;;;;;;10.10;9.10;;;;;;;;;;5036196;28;20422;-74
2021/08/21 05:36:12;;;;;;;10.03;8.80;;;;;;;;;;5036040;28;20452;-73
2021/08/21 05:38:38;;;;;;;10.60;9.10;;;;;;;;;;5035704;28;20447;-73
2021/08/21 05:41:04;;;;;;;9.97;8.60;;;;;;;;;;5034322;28;20464;-73
2021/08/21 05:43:30;;;;;;;9.10;8.00;;;;;;;;;;5036087;28;20417;-73
2021/08/21 05:45:56;;;;;;;9.20;8.30;;;;;;;;;;5035672;28;20529;-73
2021/08/21 05:48:22;;;;;;;10.63;9.27;;;;;;;;;;5035544;28;20444;-73
2021/08/21 05:50:48;;;;;;;10.27;8.47;;;;;;;;;;5035777;28;20415;-73
2021/08/21 05:53:14;;;;;;;9.00;8.07;;;;;;;;;;5035825;28;20416;-73
2021/08/21 05:55:40;;;;;;;8.63;7.73;;;;;;;;;;5035435;28;20432;-73
2021/08/21 05:58:06;;;;;;;7.80;7.00;;;;;;;;;;5046708;28;20477;-74
2021/08/21 06:00:32;;;;;;;7.20;6.50;;;;;;;;;;5055345;28;20458;-73
2021/08/21 06:02:58;;;;;;;7.20;6.23;;;;;;;;;;5055487;28;20761;-72
2021/08/21 06:05:24;;;;;;;6.67;6.07;;;;;;;;;;5050582;28;20596;-73
2021/08/21 06:07:50;;;;;;;5.83;4.80;;;;;;;;;;5035098;28;20923;-73
2021/08/21 06:10:16;;;;;;;8.17;5.67;;;;;;;;;;5035538;28;20422;-74
2021/08/21 06:12:42;;;;;;;5.23;4.73;;;;;;;;;;5035378;28;20417;-72
2021/08/21 06:15:08;;;;;;;6.50;5.23;;;;;;;;;;5035336;28;20790;-73
2021/08/21 06:17:34;;;;;;;5.80;4.83;;;;;;;;;;5034731;28;20419;-73
2021/08/21 06:20:03;;;;;;;4.70;4.30;;;;;;;;;;5035293;28;20419;-73
2021/08/21 06:22:29;;;;;;;4.80;4.40;;;;;;;;;;5035275;28;20498;-73
2021/08/21 06:24:55;;;;;;;5.03;4.50;;;;;;;;;;5035094;28;20466;-73
2021/08/21 06:27:21;;;;;;;4.80;4.37;;;;;;;;;;5033695;28;20466;-73
2021/08/21 06:29:47;;;;;;;4.53;4.13;;;;;;;;;;5034400;28;20447;-74
2021/08/21 06:32:13;;;;;;;5.60;4.10;;;;;;;;;;5045846;28;20421;-73
2021/08/21 06:34:39;;;;;;;5.20;3.97;;;;;;;;;;5054967;28;20838;-74
2021/08/21 06:37:05;;;;;;;7.63;4.10;;;;;;;;;;5035348;28;20488;-73
2021/08/21 06:39:33;;;;;;;4.37;3.97;;;;;;;;;;5034478;28;20896;-72
2021/08/21 06:41:59;;;;;;;9.00;4.47;;;;;;;;;;5034853;28;20472;-72
2021/08/21 06:44:25;;;;;;;5.27;4.80;;;;;;;;;;5040193;28;20970;-72
2021/08/21 06:46:51;;;;;;;5.70;5.10;;;;;;;;;;5054223;28;20431;-73
2021/08/21 06:49:17;;;;;;;5.27;4.77;;;;;;;;;;5035502;28;20890;-73
2021/08/21 06:51:43;;;;;;;5.07;4.60;;;;;;;;;;5034535;28;20440;-74
2021/08/21 06:54:09;;;;;;;5.63;4.47;;;;;;;;;;5034600;28;20546;-73
2021/08/21 06:56:35;;;;;;;4.33;3.93;;;;;;;;;;5036509;28;20467;-74
2021/08/21 06:59:01;;;;;;;4.57;3.93;;;;;;;;;;5034602;28;20412;-72
2021/08/21 07:01:29;;;;;;;4.90;4.10;;;;;;;;;;5034593;28;20975;-73
2021/08/21 07:03:55;;;;;;;5.13;3.73;;;;;;;;;;5034522;28;20424;-73
2021/08/21 07:06:20;;;;;;;3.80;3.40;;;;;;;;;;5046553;28;20761;-73
2021/08/21 07:08:46;;;;;;;5.90;5.30;;;;;;;;;;5053686;28;20418;-74
2021/08/21 07:11:13;;;;;;;5.40;4.23;;;;;;;;;;5054083;28;20419;-74
2021/08/21 07:13:39;;;;;;;6.07;5.47;;;;;;;;;;5054068;28;20423;-72
2021/08/21 07:16:05;;;;;;;26.67;21.00;;;;;;;;;;5053862;28;20454;-73
2021/08/21 07:18:31;;;;;;;9.97;7.90;;;;;;;;;;5053646;28;20424;-73
2021/08/21 07:20:57;;;;;;;6.43;5.37;;;;;;;;;;5054349;28;20455;-72
2021/08/21 07:23:23;;;;;;;4.00;3.60;;;;;;;;;;5044572;28;20424;-74
2021/08/21 07:25:49;;;;;;;3.60;3.30;;;;;;;;;;5033486;28;20444;-73
2021/08/21 07:28:15;;;;;;;6.00;4.73;;;;;;;;;;5032960;28;20427;-73
2021/08/21 07:30:41;;;;;;;5.00;3.87;;;;;;;;;;5033768;28;20511;-73
2021/08/21 07:33:07;;;;;;;4.20;3.80;;;;;;;;;;5033521;28;20518;-73
2021/08/21 07:35:33;;;;;;;3.50;3.20;;;;;;;;;;5035088;28;20448;-74
2021/08/21 07:37:59;;;;;;;6.43;4.27;;;;;;;;;;5033126;28;20452;-73
2021/08/21 07:40:25;;;;;;;8.13;4.50;;;;;;;;;;5033219;28;20459;-74
2021/08/21 07:42:51;;;;;;;5.40;4.90;;;;;;;;;;5033635;28;20491;-73
2021/08/21 07:45:17;;;;;;;5.20;4.70;;;;;;;;;;5033557;28;20542;-73
2021/08/21 07:47:43;;;;;;;5.67;5.00;;;;;;;;;;5033026;28;20497;-74
2021/08/21 07:50:09;;;;;;;5.20;4.70;;;;;;;;;;5045821;28;20506;-73
2021/08/21 07:52:36;;;;;;;5.60;4.83;;;;;;;;;;5053283;28;20422;-72
2021/08/21 07:55:01;;;;;;;5.13;4.60;;;;;;;;;;5053648;28;20420;-73
2021/08/21 07:57:28;;;;;;;4.70;4.30;;;;;;;;;;5039237;28;20527;-73
2021/08/21 07:59:54;;;;;;;4.47;4.07;;;;;;;;;;5040832;28;20408;-73
2021/08/21 08:02:20;;;;;;;5.63;3.90;;;;;;;;;;5032746;28;20505;-74
2021/08/21 08:04:46;;;;;;;5.70;4.30;;;;;;;;;;5033186;28;20418;-73
2021/08/21 08:07:12;;;;;;;5.33;4.63;;;;;;;;;;5032487;28;20939;-73
2021/08/21 08:09:38;;;;;;;4.13;3.83;;;;;;;;;;5033145;28;20537;-74
2021/08/21 08:12:04;;;;;;;4.27;3.70;;;;;;;;;;5032966;28;20417;-74
2021/08/21 08:14:30;;;;;;;4.30;3.90;;;;;;;;;;5032881;28;20945;-75
2021/08/21 08:16:56;;;;;;;4.23;3.20;;;;;;;;;;5038437;28;20527;-74
2021/08/21 08:19:22;;;;;;;3.73;3.40;;;;;;;;;;5037240;28;20516;-74
2021/08/21 08:21:48;;;;;;;4.20;3.80;;;;;;;;;;5038244;28;20486;-74
2021/08/21 08:24:16;;;;;;;4.03;3.63;;;;;;;;;;5030502;28;20404;-72
2021/08/21 08:26:42;;;;;;;3.90;3.47;;;;;;;;;;5024009;28;20523;-73
2021/08/21 08:29:08;;;;;;;4.90;3.40;;;;;;;;;;5029046;28;20963;-73
2021/08/21 08:31:34;;;;;;;5.83;3.33;;;;;;;;;;5035140;28;20419;-72
2021/08/21 08:34:00;;;;;;;3.83;3.37;;;;;;;;;;5048918;28;20896;-74
2021/08/21 08:36:26;;;;;;;3.47;3.17;;;;;;;;;;5048808;28;20431;-73
2021/08/21 08:38:52;;;;;;;6.73;4.70;;;;;;;;;;5021562;28;20412;-73
2021/08/21 08:41:21;;;;;;;4.90;4.50;;;;;;;;;;5029122;28;20986;-73
2021/08/21 08:43:47;;;;;;;3.73;2.97;;;;;;;;;;5029052;28;20769;-73
2021/08/21 08:46:13;;;;;;;3.30;2.93;;;;;;;;;;5045443;28;20978;-75
2021/08/21 08:48:39;;;;;;;3.57;2.80;;;;;;;;;;5041829;28;20416;-73
2021/08/21 08:51:07;;;;;;;2.87;2.67;;;;;;;;;;5050376;28;20411;-74
2021/08/21 08:53:34;;;;;;;3.00;2.50;;;;;;;;;;5053011;28;20423;-73
2021/08/21 08:56:00;;;;;;;3.13;2.77;;;;;;;;;;5047925;28;20525;-73
2021/08/21 08:58:26;;;;;;;5.53;3.00;;;;;;;;;;5032450;28;20416;-74
2021/08/21 09:00:52;;;;;;;6.27;2.50;;;;;;;;;;5032815;28;20506;-73
2021/08/21 09:03:28;;;;;;;3.80;2.90;;;;;;;;;;5032800;28;20495;-74
2021/08/21 09:05:54;;;;;;;4.23;3.00;;;;;;;;;;5032853;28;20482;-73
2021/08/21 09:08:28;;;;;;;6.20;3.23;;;;;;;;;;5032464;28;20829;-73
2021/08/21 09:10:55;;;;;;;6.43;2.93;;;;;;;;;;5032850;28;20427;-73
2021/08/21 09:13:21;;;;;;;3.30;3.00;;;;;;;;;;5032615;28;20428;-73
2021/08/21 09:15:51;;;;;;;3.60;2.87;;;;;;;;;;5032608;28;20790;-74
2021/08/21 09:18:24;;;;;;;3.27;2.83;;;;;;;;;;5032145;28;20423;-73
2021/08/21 09:20:50;;;;;;;3.50;2.83;;;;;;;;;;5043878;28;20506;-73
2021/08/21 09:23:17;;;;;;;3.13;2.17;;;;;;;;;;5052431;28;20415;-73
2021/08/21 09:25:43;;;;;;;3.50;2.70;;;;;;;;;;5052524;28;20442;-73
2021/08/21 09:28:16;;;;;;;3.27;2.87;;;;;;;;;;5052056;28;20825;-74
2021/08/21 09:30:42;;;;;;;3.47;2.77;;;;;;;;;;5024953;28;21200;-74
2021/08/21 09:33:08;;;;;;;3.17;2.87;;;;;;;;;;5032279;28;20478;-73
2021/08/21 09:35:34;;;;;;;3.00;2.73;;;;;;;;;;5032358;28;20873;-73
2021/08/21 09:38:02;;;;;;;4.00;3.60;;;;;;;;;;5031953;28;20412;-74
2021/08/21 09:40:28;;;;;;;2.93;2.50;;;;;;;;;;5032108;28;20422;-74
2021/08/21 09:42:54;;;;;;;4.30;2.83;;;;;;;;;;5031909;28;20562;-73
2021/08/21 09:45:21;;;;;;;2.70;2.30;;;;;;;;;;5031982;28;20458;-73
2021/08/21 09:47:47;;;;;;;2.87;2.27;;;;;;;;;;5031717;28;20554;-73
2021/08/21 09:50:17;;;;;;;3.07;2.50;;;;;;;;;;5031953;28;20423;-74
2021/08/21 09:52:44;;;;;;;3.97;2.50;;;;;;;;;;5031965;28;20437;-74
2021/08/21 09:55:19;;;;;;;3.00;2.40;;;;;;;;;;5031561;28;20498;-73
2021/08/21 09:57:57;;;;;;;2.90;2.50;;;;;;;;;;5040144;28;20411;-74
2021/08/21 10:00:23;;;;;;;2.83;2.00;;;;;;;;;;5046784;28;20786;-73
2021/08/21 10:02:49;;;;;;;3.07;2.03;;;;;;;;;;5041349;28;20753;-72
2021/08/21 10:05:16;;;;;;;3.90;2.43;;;;;;;;;;5051448;28;20463;-73
2021/08/21 10:07:45;;;;;;;2.97;2.03;;;;;;;;;;5051245;28;20421;-73
2021/08/21 10:10:14;;;;;;;2.40;1.90;;;;;;;;;;5051878;28;20500;-73
2021/08/21 10:12:44;;;;;;;2.70;1.93;;;;;;;;;;5051477;28;20415;-73
2021/08/21 10:15:12;;;;;;;2.50;1.77;;;;;;;;;;5038326;28;20439;-73
2021/08/21 10:17:39;;;;;;;3.53;2.17;;;;;;;;;;5051224;28;20422;-73
2021/08/21 10:20:05;;;;;;;2.60;1.63;;;;;;;;;;5047290;28;20490;-73
2021/08/21 10:22:31;;;;;;;2.40;1.90;;;;;;;;;;5051073;28;20577;-72
2021/08/21 10:25:05;;;;;;;3.23;1.53;;;;;;;;;;5051166;28;20952;-73
2021/08/21 10:27:36;;;;;;;3.43;1.70;;;;;;;;;;5044691;28;20790;-74
2021/08/21 10:30:05;;;;;;;2.80;2.60;;;;;;;;;;5027060;28;20439;-73
2021/08/21 10:32:32;;;;;;;5.13;3.50;;;;;;;;;;5031386;28;20419;-73
2021/08/21 10:34:58;;;;;;;2.00;1.60;;;;;;;;;;5030820;28;20444;-73
2021/08/21 10:37:38;;;;;;;2.30;1.63;;;;;;;;;;5030835;28;20514;-73
2021/08/21 10:40:22;;;;;;;3.77;2.47;;;;;;;;;;5031000;28;20467;-73
2021/08/21 10:42:53;;;;;;;2.00;1.60;;;;;;;;;;5030918;28;20547;-73
2021/08/21 10:45:39;;;;;;;2.30;1.80;;;;;;;;;;5030657;28;20440;-72
2021/08/21 10:48:06;;;;;;;2.23;1.77;;;;;;;;;;5030626;28;20766;-72
2021/08/21 10:50:34;;;;;;;4.07;2.60;;;;;;;;;;5029441;28;20443;-73
2021/08/21 10:53:03;;;;;;;2.50;1.90;;;;;;;;;;5030588;28;20932;-72
2021/08/21 10:55:39;;;;;;;1.90;1.60;;;;;;;;;;5030481;28;20460;-73
2021/08/21 10:58:05;;;;;;;2.17;1.67;;;;;;;;;;5047693;28;20518;-72
2021/08/21 11:00:40;;;;;;;2.10;1.57;;;;;;;;;;5050336;28;20458;-74
2021/08/21 11:03:07;;;;;;;2.00;1.40;;;;;;;;;;5031946;28;20424;-73
2021/08/21 11:05:52;;;;;;;2.13;1.40;;;;;;;;;;5030384;28;20545;-73
2021/08/21 11:08:18;;;;;;;2.00;1.60;;;;;;;;;;5030139;28;20834;-73
2021/08/21 11:10:45;;;;;;;2.00;1.40;;;;;;;;;;5030363;28;20412;-74
2021/08/21 11:13:12;;;;;;;1.80;1.20;;;;;;;;;;5029989;28;20413;-74
2021/08/21 11:15:38;;;;;;;1.80;1.20;;;;;;;;;;5030457;28;21177;-73
2021/08/21 11:18:19;;;;;;;2.00;1.40;;;;;;;;;;5030365;28;20412;-74
2021/08/21 11:20:45;;;;;;;3.70;1.33;;;;;;;;;;5029856;28;20594;-74
2021/08/21 11:23:14;;;;;;;1.90;1.30;;;;;;;;;;5030459;28;20424;-73
2021/08/21 11:25:42;;;;;;;1.90;1.43;;;;;;;;;;5029973;28;20439;-74
2021/08/21 11:28:10;;;;;;;2.20;1.60;;;;;;;;;;5030013;28;20509;-73
2021/08/21 11:30:36;;;;;;;1.80;1.30;;;;;;;;;;5029285;28;20422;-73
2021/08/21 11:33:08;;;;;;;1.90;1.30;;;;;;;;;;5029856;28;20413;-73
2021/08/21 11:35:36;;;;;;;2.20;1.30;;;;;;;;;;5030216;28;20774;-73
2021/08/21 11:38:09;;;;;;;2.30;1.80;;;;;;;;;;5030029;28;20412;-74
2021/08/21 11:40:40;;;;;;;1.80;1.40;;;;;;;;;;5029720;28;20483;-73
2021/08/21 11:43:08;;;;;;;1.90;1.60;;;;;;;;;;5031618;28;20427;-73
2021/08/21 11:45:34;;;;;;;2.30;1.60;;;;;;;;;;5038205;28;20526;-73
2021/08/21 11:48:00;;;;;;;2.00;1.50;;;;;;;;;;5026673;28;20435;-74
2021/08/21 11:50:31;;;;;;;2.00;1.50;;;;;;;;;;5029638;28;20495;-74
2021/08/21 11:52:58;;;;;;;2.23;1.57;;;;;;;;;;5029592;28;20413;-73
2021/08/21 11:55:25;;;;;;;2.00;1.50;;;;;;;;;;5027205;28;20453;-74
2021/08/21 11:57:52;;;;;;;2.00;1.40;;;;;;;;;;5029241;28;20897;-74
2021/08/21 12:00:20;;;;;;;1.80;1.30;;;;;;;;;;5026986;28;20777;-74
2021/08/21 12:02:50;;;;;;;1.90;1.40;;;;;;;;;;5027959;28;20472;-72
2021/08/21 12:05:26;;;;;;;2.13;1.50;;;;;;;;;;5029154;28;21477;-72
2021/08/21 12:07:52;;;;;;;1.80;1.30;;;;;;;;;;5018835;28;20451;-73
2021/08/21 12:10:18;;;;;;;2.00;1.40;;;;;;;;;;5028821;28;20457;-73
2021/08/21 12:12:44;;;;;;;1.90;1.40;;;;;;;;;;5049172;28;20843;-72
2021/08/21 12:15:11;;;;;;;2.23;1.30;;;;;;;;;;5048019;28;20792;-73
2021/08/21 12:17:37;;;;;;;2.37;1.70;;;;;;;;;;5048789;28;21031;-72
2021/08/21 12:20:03;;;;;;;2.10;1.30;;;;;;;;;;5041022;28;20773;-73
2021/08/21 12:22:30;;;;;;;1.90;1.40;;;;;;;;;;5027726;28;20838;-73
2021/08/21 12:24:57;;;;;;;1.90;1.37;;;;;;;;;;5028457;28;20989;-74
2021/08/21 12:27:23;;;;;;;2.40;1.73;;;;;;;;;;5028224;28;20448;-74
2021/08/21 12:30:04;;;;;;;2.77;1.30;;;;;;;;;;5028910;28;20420;-74
2021/08/21 12:32:30;;;;;;;1.93;1.47;;;;;;;;;;5028992;28;20838;-73
2021/08/21 12:35:16;;;;;;;2.03;1.40;;;;;;;;;;5028892;28;20475;-73
2021/08/21 12:37:42;;;;;;;2.50;1.60;;;;;;;;;;5027037;28;20446;-74
2021/08/21 12:40:10;;;;;;;2.67;1.67;;;;;;;;;;5029073;28;20489;-74
2021/08/21 12:42:36;;;;;;;3.00;1.57;;;;;;;;;;5028501;28;20476;-73
2021/08/21 12:45:19;;;;;;;2.00;1.47;;;;;;;;;;5028966;28;20420;-75
2021/08/21 12:47:45;;;;;;;2.20;1.60;;;;;;;;;;5039270;28;21060;-73
2021/08/21 12:50:12;;;;;;;2.57;1.50;;;;;;;;;;5045171;28;20425;-73
2021/08/21 12:52:38;;;;;;;2.00;1.40;;;;;;;;;;5026230;28;20470;-74
2021/08/21 12:55:08;;;;;;;2.00;1.40;;;;;;;;;;5028574;28;20486;-73
2021/08/21 12:57:43;;;;;;;2.30;1.60;;;;;;;;;;5028333;28;20417;-73
2021/08/21 13:00:12;;;;;;;2.20;1.40;;;;;;;;;;5028689;28;20416;-73
2021/08/21 13:02:42;;;;;;;1.80;1.40;;;;;;;;;;5028510;28;20545;-73
2021/08/21 13:05:12;;;;;;;3.10;1.90;;;;;;;;;;5028484;28;20412;-73
2021/08/21 13:07:45;;;;;;;3.60;1.97;;;;;;;;;;5026488;28;20424;-74
2021/08/21 13:10:12;;;;;;;2.93;2.30;;;;;;;;;;5028916;28;20906;-74
2021/08/21 13:12:38;;;;;;;2.10;1.70;;;;;;;;;;5028401;28;20474;-73
2021/08/21 13:15:09;;;;;;;2.50;1.90;;;;;;;;;;5028802;28;20417;-76
2021/08/21 13:17:35;;;;;;;2.60;2.00;;;;;;;;;;5027796;28;20778;-75
2021/08/21 13:20:01;;;;;;;2.07;1.57;;;;;;;;;;5028700;28;20424;-74
2021/08/21 13:22:30;;;;;;;2.20;1.60;;;;;;;;;;5018155;28;20463;-74
2021/08/21 13:24:57;;;;;;;2.57;2.10;;;;;;;;;;5048376;28;20423;-73
2021/08/21 13:27:23;;;;;;;3.13;1.80;;;;;;;;;;5024108;28;20525;-74
2021/08/21 13:29:49;;;;;;;3.33;2.00;;;;;;;;;;5025031;28;20799;-75
2021/08/21 13:32:15;;;;;;;2.20;1.70;;;;;;;;;;5027618;28;20525;-73
2021/08/21 13:34:41;;;;;;;4.20;3.80;;;;;;;;;;5028477;28;20486;-74
2021/08/21 13:37:07;;;;;;;3.57;3.27;;;;;;;;;;5027623;28;20502;-74
2021/08/21 13:39:34;;;;;;;3.93;3.57;;;;;;;;;;5032292;28;20443;-73
2021/08/21 13:42:00;;;;;;;3.70;3.40;;;;;;;;;;5031680;28;20483;-72
2021/08/21 13:44:26;;;;;;;3.03;2.73;;;;;;;;;;5032056;28;20889;-73
2021/08/21 13:46:52;;;;;;;3.10;2.57;;;;;;;;;;5031249;28;20440;-74
2021/08/21 13:49:18;;;;;;;3.33;2.27;;;;;;;;;;5032103;28;20413;-74
2021/08/21 13:51:44;;;;;;;2.30;2.00;;;;;;;;;;5031803;28;20994;-74
2021/08/21 13:54:10;;;;;;;2.47;1.87;;;;;;;;;;5031800;28;20499;-73
2021/08/21 13:56:37;;;;;;;2.10;1.67;;;;;;;;;;5031371;28;20456;-73
2021/08/21 13:59:04;;;;;;;2.20;1.60;;;;;;;;;;5031186;28;20420;-73
2021/08/21 14:01:31;;;;;;;2.10;1.57;;;;;;;;;;5031623;28;20511;-74
2021/08/21 14:03:57;;;;;;;2.10;1.70;;;;;;;;;;5031702;28;20412;-74
2021/08/21 14:06:23;;;;;;;2.30;1.90;;;;;;;;;;5031224;28;20904;-74
2021/08/21 14:08:49;;;;;;;2.73;2.37;;;;;;;;;;5031059;28;20436;-74
2021/08/21 14:11:15;;;;;;;2.70;2.00;;;;;;;;;;5031556;28;20420;-74
2021/08/21 14:13:41;;;;;;;2.97;2.67;;;;;;;;;;5031380;28;20523;-74
2021/08/21 14:16:07;;;;;;;2.20;1.97;;;;;;;;;;5031549;28;20444;-73
2021/08/21 14:18:33;;;;;;;2.33;1.80;;;;;;;;;;5028550;28;20886;-74
2021/08/21 14:20:59;;;;;;;3.80;2.50;;;;;;;;;;5033565;28;20460;-75
2021/08/21 14:23:25;;;;;;;4.70;2.70;;;;;;;;;;5031264;28;20905;-73
2021/08/21 14:25:51;;;;;;;2.50;2.23;;;;;;;;;;5031335;28;20797;-74
2021/08/21 14:28:17;;;;;;;2.10;1.70;;;;;;;;;;5030689;28;20413;-73
2021/08/21 14:30:44;;;;;;;3.00;2.10;;;;;;;;;;5023068;28;20430;-75
2021/08/21 14:33:10;;;;;;;2.27;2.03;;;;;;;;;;5051221;28;20746;-75
2021/08/21 14:35:36;;;;;;;2.93;2.17;;;;;;;;;;5031413;28;20470;-74
2021/08/21 14:38:03;;;;;;;2.77;2.20;;;;;;;;;;5030699;28;20458;-74